Terminal Aerodrome Forecast
Issued by NWS

Home | Current Version | Previous Version | Text Only | Print | Product List | Glossary On
Versions: 1 2 3 4 5 6 7 8 9 10 11 12 13 14 15 16 17
000
FTUS42 KTBW 252320
TAFLAL
TAF
KLAL 252320Z 2600/2624 07011KT P6SM FEW050
     FM260200 06006KT P6SM FEW050 FEW250
     FM261000 05004KT P6SM SCT015 SCT250
     FM261500 07010KT P6SM SCT025 SCT250
     FM261900 07012G18KT P6SM VCTS SCT035CB BKN050
      AMD NOT SKED 2602/2611=

USA.gov is the U.S. government's official web portal to all federal, state and local government web resources and services.